Time;durP1;ratioP1;P1;durP2;ratioP2;P2;SDS_P1;SDS_P2;PMS_P1;PMS_P2;Temp;Humidity;BMP_temperature;BMP_pressure;BME280_temperature;BME280_humidity;BME280_pressure;Samples;Min_cycle;Max_cycle;Signal;HPM_P1;HPM_P2
2023/02/16 00:01:15;;;;;;;80.07;34.85;;;;;;;;;;10374546;28;20013;-77
2023/02/16 00:06:15;;;;;;;79.30;34.97;;;;;;;;;;10353629;28;20475;-77
2023/02/16 00:16:39;;;;;;;79.85;34.65;;;;;;;;;;10394459;28;20022;-71
2023/02/16 00:21:40;;;;;;;72.78;31.73;;;;;;;;;;10382894;28;20121;-76
2023/02/16 00:26:41;;;;;;;76.57;34.37;;;;;;;;;;10385068;28;20022;-72
2023/02/16 00:31:41;;;;;;;77.03;34.42;;;;;;;;;;10364761;28;20530;-79
2023/02/16 00:36:41;;;;;;;82.72;36.38;;;;;;;;;;10382491;28;20040;-76
2023/02/16 00:41:50;;;;;;;86.47;34.63;;;;;;;;;;10382545;28;20022;-76
2023/02/16 00:46:51;;;;;;;74.45;34.22;;;;;;;;;;10382850;28;20448;-77
2023/02/16 00:51:51;;;;;;;82.88;33.35;;;;;;;;;;10382118;28;20099;-76
2023/02/16 00:56:51;;;;;;;76.82;37.22;;;;;;;;;;10384791;28;20018;-74
2023/02/16 01:01:52;;;;;;;78.87;35.43;;;;;;;;;;10389194;28;20144;-78
2023/02/16 01:12:14;;;;;;;71.13;32.28;;;;;;;;;;10407542;28;20315;-76
2023/02/16 01:17:15;;;;;;;82.57;37.00;;;;;;;;;;10388905;28;20025;-75
2023/02/16 01:22:15;;;;;;;83.18;35.10;;;;;;;;;;10389126;28;20025;-75
2023/02/16 01:27:16;;;;;;;70.60;31.90;;;;;;;;;;10389221;28;20038;-77
2023/02/16 01:32:16;;;;;;;75.97;34.00;;;;;;;;;;10388915;28;20021;-75
2023/02/16 01:37:17;;;;;;;80.95;32.55;;;;;;;;;;10399712;28;20021;-76
2023/02/16 01:42:32;;;;;;;82.50;32.28;;;;;;;;;;10380060;28;20046;-73
2023/02/16 01:47:57;;;;;;;67.75;30.63;;;;;;;;;;10374193;28;20021;-77
2023/02/16 01:53:02;;;;;;;75.28;32.78;;;;;;;;;;10392209;28;20029;-73
2023/02/16 01:58:25;;;;;;;74.47;33.15;;;;;;;;;;10410403;28;20022;-75
2023/02/16 02:09:11;;;;;;;73.80;32.95;;;;;;;;;;10411739;28;20025;-70
2023/02/16 02:14:14;;;;;;;81.97;33.92;;;;;;;;;;10396164;22;20050;-77
2023/02/16 02:19:14;;;;;;;71.13;32.97;;;;;;;;;;10347131;28;20108;-76
2023/02/16 02:24:15;;;;;;;75.00;31.80;;;;;;;;;;10330696;28;20407;-75
2023/02/16 02:29:15;;;;;;;78.13;32.97;;;;;;;;;;10328582;28;20404;-72
2023/02/16 02:34:24;;;;;;;89.38;33.08;;;;;;;;;;10305680;28;20019;-75
2023/02/16 02:39:24;;;;;;;85.07;36.55;;;;;;;;;;10305465;28;20034;-78
2023/02/16 02:44:26;;;;;;;70.32;32.92;;;;;;;;;;10324224;28;20467;-75
2023/02/16 02:49:26;;;;;;;72.63;33.35;;;;;;;;;;10345633;28;20443;-78
2023/02/16 03:05:28;;;;;;;63.58;29.02;;;;;;;;;;10322286;28;20125;-79
2023/02/16 03:15:48;;;;;;;69.70;31.65;;;;;;;;;;10364351;28;20088;-76
2023/02/16 03:31:30;;;;;;;74.72;33.63;;;;;;;;;;10361150;28;20139;-75
2023/02/16 03:36:33;;;;;;;83.13;35.10;;;;;;;;;;10343287;28;20029;-71
2023/02/16 03:41:37;;;;;;;71.28;32.17;;;;;;;;;;10340570;28;20033;-76
2023/02/16 03:46:37;;;;;;;73.45;31.58;;;;;;;;;;10331166;28;20606;-80
2023/02/16 03:51:37;;;;;;;75.33;30.17;;;;;;;;;;10342809;28;20033;-73
2023/02/16 03:56:38;;;;;;;70.50;31.27;;;;;;;;;;10343540;28;20399;-75
2023/02/16 04:01:38;;;;;;;71.38;30.02;;;;;;;;;;10326855;28;20269;-81
2023/02/16 04:06:38;;;;;;;74.45;29.67;;;;;;;;;;10340291;28;20037;-78
2023/02/16 04:16:57;;;;;;;71.68;32.33;;;;;;;;;;10350532;28;20061;-76
2023/02/16 04:21:58;;;;;;;78.87;35.30;;;;;;;;;;10326781;28;20039;-78
2023/02/16 04:26:58;;;;;;;72.63;31.55;;;;;;;;;;10342789;28;20022;-78
2023/02/16 04:31:58;;;;;;;75.80;34.93;;;;;;;;;;10363596;28;20034;-75
2023/02/16 04:36:58;;;;;;;79.63;36.40;;;;;;;;;;10326233;28;20084;-72
2023/02/16 04:41:59;;;;;;;82.55;34.08;;;;;;;;;;10362410;28;20021;-75
2023/02/16 04:46:59;;;;;;;107.17;48.97;;;;;;;;;;10350035;28;20061;-79
2023/02/16 04:52:00;;;;;;;143.83;61.47;;;;;;;;;;10326681;28;20480;-72
2023/02/16 04:57:00;;;;;;;138.13;61.80;;;;;;;;;;10346518;28;20651;-72
2023/02/16 05:02:00;;;;;;;154.57;60.63;;;;;;;;;;10333715;28;20029;-75
2023/02/16 05:07:00;;;;;;;123.77;54.40;;;;;;;;;;10366691;28;20026;-71
2023/02/16 05:17:21;;;;;;;78.70;38.47;;;;;;;;;;10362868;28;20631;-77
2023/02/16 05:22:21;;;;;;;62.30;30.50;;;;;;;;;;10331575;28;20565;-74
2023/02/16 05:27:26;;;;;;;47.70;23.23;;;;;;;;;;10324331;28;20024;-76
2023/02/16 05:32:27;;;;;;;42.13;20.38;;;;;;;;;;10336161;28;20655;-77
2023/02/16 05:37:27;;;;;;;33.70;17.57;;;;;;;;;;10365189;28;20028;-77
2023/02/16 05:42:27;;;;;;;75.80;33.97;;;;;;;;;;10346549;28;20284;-79
2023/02/16 05:47:28;;;;;;;102.78;46.53;;;;;;;;;;10343948;28;20026;-76
2023/02/16 05:52:29;;;;;;;109.97;50.10;;;;;;;;;;10346067;28;20025;-81
2023/02/16 05:57:32;;;;;;;98.75;49.60;;;;;;;;;;10333010;28;20420;-75
2023/02/16 06:02:33;;;;;;;115.78;50.97;;;;;;;;;;10336896;28;20476;-76
2023/02/16 06:07:33;;;;;;;118.05;52.83;;;;;;;;;;10332488;28;20021;-75
2023/02/16 06:12:33;;;;;;;108.33;50.13;;;;;;;;;;10324308;28;20025;-81
2023/02/16 06:17:34;;;;;;;121.80;51.20;;;;;;;;;;10331768;28;20417;-75
2023/02/16 06:22:34;;;;;;;125.13;57.78;;;;;;;;;;10321771;28;20096;-75
2023/02/16 06:27:34;;;;;;;114.53;49.00;;;;;;;;;;10322120;28;20025;-78
2023/02/16 06:32:34;;;;;;;109.72;49.30;;;;;;;;;;10317315;28;20528;-75
2023/02/16 06:37:35;;;;;;;109.85;48.47;;;;;;;;;;10338028;28;20113;-74
2023/02/16 06:42:35;;;;;;;118.88;53.92;;;;;;;;;;10317537;28;20515;-73
2023/02/16 06:47:36;;;;;;;136.27;61.42;;;;;;;;;;10321945;28;20038;-74
2023/02/16 06:52:36;;;;;;;123.07;56.92;;;;;;;;;;10344161;28;20049;-75
2023/02/16 06:57:37;;;;;;;139.10;59.60;;;;;;;;;;10329956;28;20026;-75
2023/02/16 07:02:37;;;;;;;133.10;57.23;;;;;;;;;;10304683;28;20051;-77
2023/02/16 07:07:37;;;;;;;124.22;52.28;;;;;;;;;;10333344;28;20616;-70
2023/02/16 07:12:37;;;;;;;116.43;47.17;;;;;;;;;;10329217;28;20050;-77
2023/02/16 07:17:38;;;;;;;71.38;31.55;;;;;;;;;;10332332;28;20046;-75
2023/02/16 07:22:38;;;;;;;70.00;33.67;;;;;;;;;;10308300;28;20030;-79
2023/02/16 07:27:39;;;;;;;56.88;29.90;;;;;;;;;;10310918;28;20045;-76
2023/02/16 07:32:39;;;;;;;60.72;28.00;;;;;;;;;;10308578;28;20038;-76
2023/02/16 07:37:39;;;;;;;67.45;30.17;;;;;;;;;;10317642;28;20444;-70
2023/02/16 07:42:39;;;;;;;67.50;33.42;;;;;;;;;;10311741;28;20030;-72
2023/02/16 07:47:40;;;;;;;64.55;32.97;;;;;;;;;;10304632;28;20042;-74
2023/02/16 07:52:40;;;;;;;64.28;31.27;;;;;;;;;;10310498;28;20034;-71
2023/02/16 07:57:40;;;;;;;71.90;31.88;;;;;;;;;;10358184;23;20057;-76
2023/02/16 08:02:41;;;;;;;77.63;36.55;;;;;;;;;;10392619;28;20036;-72
2023/02/16 08:07:41;;;;;;;64.67;31.97;;;;;;;;;;10377650;28;20025;-76
2023/02/16 08:12:41;;;;;;;79.60;36.58;;;;;;;;;;10389981;28;20284;-74
2023/02/16 08:17:42;;;;;;;81.28;36.05;;;;;;;;;;10392446;28;20021;-75
2023/02/16 08:22:43;;;;;;;75.50;36.22;;;;;;;;;;10411134;28;20029;-76
2023/02/16 08:27:43;;;;;;;89.03;41.40;;;;;;;;;;10390216;28;20471;-74
2023/02/16 08:32:45;;;;;;;89.75;37.70;;;;;;;;;;10377160;28;20033;-75
2023/02/16 08:37:46;;;;;;;82.18;39.15;;;;;;;;;;10399578;28;20027;-73
2023/02/16 08:42:46;;;;;;;87.28;43.65;;;;;;;;;;10386430;28;20036;-71
2023/02/16 08:47:47;;;;;;;94.05;39.60;;;;;;;;;;10404976;28;20021;-78
2023/02/16 08:52:47;;;;;;;84.85;39.35;;;;;;;;;;10409955;28;20029;-77
2023/02/16 08:57:48;;;;;;;85.18;40.00;;;;;;;;;;10403664;28;20051;-71
2023/02/16 09:02:48;;;;;;;89.72;39.55;;;;;;;;;;10363810;28;20029;-74
2023/02/16 09:07:50;;;;;;;81.25;36.33;;;;;;;;;;10407274;28;20056;-78
2023/02/16 09:12:50;;;;;;;89.47;37.25;;;;;;;;;;10390250;28;20038;-74
2023/02/16 09:17:51;;;;;;;75.88;33.75;;;;;;;;;;10402889;28;20029;-77
2023/02/16 09:22:51;;;;;;;69.97;31.20;;;;;;;;;;10375491;28;20033;-77
2023/02/16 09:27:52;;;;;;;69.60;33.28;;;;;;;;;;10380623;28;20031;-76
2023/02/16 09:32:52;;;;;;;69.30;31.07;;;;;;;;;;10383059;28;20064;-71
2023/02/16 09:37:53;;;;;;;65.13;29.50;;;;;;;;;;10403482;28;20463;-76
2023/02/16 09:43:07;;;;;;;59.75;26.73;;;;;;;;;;10383690;28;20067;-76
2023/02/16 09:48:18;;;;;;;57.22;25.55;;;;;;;;;;10385849;28;20048;-76
2023/02/16 09:53:21;;;;;;;55.75;26.85;;;;;;;;;;10398814;28;20029;-74
2023/02/16 09:58:25;;;;;;;65.90;31.13;;;;;;;;;;10384007;28;20052;-70
2023/02/16 10:03:25;;;;;;;53.70;26.63;;;;;;;;;;10395893;28;20029;-76
2023/02/16 10:08:41;;;;;;;49.97;25.63;;;;;;;;;;10381512;28;20032;-70
2023/02/16 10:13:48;;;;;;;44.05;23.13;;;;;;;;;;10392249;28;20416;-76
2023/02/16 10:18:50;;;;;;;48.38;24.55;;;;;;;;;;10389180;28;20036;-79
2023/02/16 10:23:54;;;;;;;43.15;20.75;;;;;;;;;;10382728;28;20036;-77
2023/02/16 10:28:56;;;;;;;48.00;22.08;;;;;;;;;;10390222;28;20421;-73
2023/02/16 10:33:57;;;;;;;39.25;21.00;;;;;;;;;;10382159;28;20292;-78
2023/02/16 10:39:17;;;;;;;42.70;20.77;;;;;;;;;;10384084;28;20159;-71
2023/02/16 10:44:27;;;;;;;42.42;21.50;;;;;;;;;;10381680;28;20040;-74
2023/02/16 10:49:28;;;;;;;40.45;19.88;;;;;;;;;;10380221;28;20072;-72
2023/02/16 10:54:30;;;;;;;42.72;21.48;;;;;;;;;;10390609;28;20029;-74
2023/02/16 10:59:38;;;;;;;46.13;22.83;;;;;;;;;;10397071;28;20052;-76
2023/02/16 11:04:40;;;;;;;44.33;22.10;;;;;;;;;;10366312;28;20417;-77
2023/02/16 11:09:42;;;;;;;44.90;21.25;;;;;;;;;;10388635;28;20076;-79
2023/02/16 11:14:53;;;;;;;38.60;20.85;;;;;;;;;;10381744;28;20025;-78
2023/02/16 11:19:59;;;;;;;39.38;21.88;;;;;;;;;;10378295;28;20033;-74
2023/02/16 11:25:18;;;;;;;47.30;23.23;;;;;;;;;;10381517;28;20041;-76
2023/02/16 11:30:31;;;;;;;41.10;21.27;;;;;;;;;;10380930;28;20403;-76
2023/02/16 11:35:39;;;;;;;40.53;22.08;;;;;;;;;;10394046;28;20132;-76
2023/02/16 11:40:39;;;;;;;34.35;19.52;;;;;;;;;;10379415;28;20028;-76
2023/02/16 11:45:39;;;;;;;36.45;19.80;;;;;;;;;;10380087;28;20029;-77
2023/02/16 11:50:54;;;;;;;39.73;20.57;;;;;;;;;;10395236;28;20394;-76
2023/02/16 11:56:13;;;;;;;39.13;20.13;;;;;;;;;;10400683;23;20057;-77
2023/02/16 12:01:20;;;;;;;40.83;22.65;;;;;;;;;;10397277;28;20018;-74
2023/02/16 12:06:30;;;;;;;45.13;23.23;;;;;;;;;;10396039;28;20029;-77
2023/02/16 12:11:43;;;;;;;48.13;22.92;;;;;;;;;;10377113;28;20033;-73
2023/02/16 12:16:59;;;;;;;49.08;25.98;;;;;;;;;;10390059;28;20029;-76
2023/02/16 12:21:59;;;;;;;50.20;25.13;;;;;;;;;;10389188;28;20025;-75
2023/02/16 12:27:01;;;;;;;51.97;26.27;;;;;;;;;;10379722;28;20026;-75
2023/02/16 12:32:18;;;;;;;49.75;23.50;;;;;;;;;;10382475;28;20025;-75
2023/02/16 12:37:25;;;;;;;51.65;23.15;;;;;;;;;;10381017;28;20546;-75
2023/02/16 12:42:26;;;;;;;45.30;23.55;;;;;;;;;;10364392;28;20065;-70
2023/02/16 12:47:33;;;;;;;52.08;23.17;;;;;;;;;;10382070;28;20113;-73
2023/02/16 12:52:34;;;;;;;52.15;24.15;;;;;;;;;;10381994;28;20045;-75
2023/02/16 12:57:34;;;;;;;53.17;23.77;;;;;;;;;;10380573;28;20021;-71
2023/02/16 13:02:39;;;;;;;43.75;21.17;;;;;;;;;;10388646;28;20292;-76
2023/02/16 13:07:45;;;;;;;55.38;24.45;;;;;;;;;;10388668;28;20029;-76
2023/02/16 13:12:49;;;;;;;43.53;21.10;;;;;;;;;;10381009;28;20038;-75
2023/02/16 13:17:49;;;;;;;49.60;23.92;;;;;;;;;;10385323;28;20638;-75
2023/02/16 13:23:05;;;;;;;44.00;20.93;;;;;;;;;;10396346;28;20026;-76
2023/02/16 13:28:24;;;;;;;54.38;23.88;;;;;;;;;;10403085;28;20407;-76
2023/02/16 13:33:24;;;;;;;48.30;21.98;;;;;;;;;;10373026;28;20117;-71
2023/02/16 13:38:27;;;;;;;54.50;22.77;;;;;;;;;;10381224;28;20511;-74
2023/02/16 13:43:48;;;;;;;59.30;22.25;;;;;;;;;;10401209;28;20029;-72
2023/02/16 13:48:52;;;;;;;46.40;20.40;;;;;;;;;;10395868;28;20024;-72
2023/02/16 13:53:58;;;;;;;46.17;19.73;;;;;;;;;;10399750;28;20064;-75
2023/02/16 13:59:17;;;;;;;60.67;23.05;;;;;;;;;;10369583;28;20088;-75
2023/02/16 14:04:20;;;;;;;55.75;23.52;;;;;;;;;;10400099;28;20025;-75
2023/02/16 14:09:32;;;;;;;48.90;22.38;;;;;;;;;;10381832;28;20022;-78
2023/02/16 14:14:38;;;;;;;56.72;25.17;;;;;;;;;;10381252;28;20022;-77
2023/02/16 14:19:47;;;;;;;48.50;22.50;;;;;;;;;;10370982;28;20108;-76
2023/02/16 14:24:54;;;;;;;61.53;23.52;;;;;;;;;;10384681;28;20028;-75
2023/02/16 14:29:59;;;;;;;42.73;20.60;;;;;;;;;;10385060;28;20025;-75
2023/02/16 14:35:12;;;;;;;43.90;20.02;;;;;;;;;;10385283;28;20123;-75
2023/02/16 14:40:15;;;;;;;39.65;20.05;;;;;;;;;;10384451;28;20053;-75
2023/02/16 14:45:25;;;;;;;40.30;18.15;;;;;;;;;;10384647;28;20036;-76
2023/02/16 14:50:44;;;;;;;41.08;18.73;;;;;;;;;;10388300;28;20163;-74
2023/02/16 14:55:51;;;;;;;40.63;18.90;;;;;;;;;;10367728;28;20530;-77
2023/02/16 15:00:53;;;;;;;44.67;20.00;;;;;;;;;;10382572;28;20047;-76
2023/02/16 15:06:03;;;;;;;44.88;19.25;;;;;;;;;;10400009;28;20530;-75
2023/02/16 15:11:18;;;;;;;34.67;18.65;;;;;;;;;;10383701;28;20025;-75
2023/02/16 15:16:19;;;;;;;48.10;18.63;;;;;;;;;;10382471;28;20022;-77
2023/02/16 15:21:27;;;;;;;38.22;18.95;;;;;;;;;;10383436;28;20397;-76
2023/02/16 15:26:32;;;;;;;43.15;19.77;;;;;;;;;;10375729;28;20037;-75
2023/02/16 15:31:34;;;;;;;76.93;21.80;;;;;;;;;;10370443;28;20045;-76
2023/02/16 15:36:34;;;;;;;54.83;26.17;;;;;;;;;;10381143;28;20014;-78
2023/02/16 15:41:36;;;;;;;73.93;30.13;;;;;;;;;;10368537;28;20029;-76
2023/02/16 15:46:38;;;;;;;67.28;28.40;;;;;;;;;;10384745;28;20029;-75
2023/02/16 15:51:39;;;;;;;70.03;29.67;;;;;;;;;;10373667;28;20028;-78
2023/02/16 15:56:44;;;;;;;71.75;30.25;;;;;;;;;;10364551;28;20142;-75
2023/02/16 16:01:46;;;;;;;79.75;29.92;;;;;;;;;;10377828;28;20124;-75
2023/02/16 16:06:47;;;;;;;78.20;31.52;;;;;;;;;;10393823;28;20247;-75
2023/02/16 16:11:48;;;;;;;72.00;30.15;;;;;;;;;;10362483;28;20075;-75
2023/02/16 16:16:48;;;;;;;76.30;32.25;;;;;;;;;;10374312;28;20029;-75
2023/02/16 16:21:55;;;;;;;79.35;31.40;;;;;;;;;;10366162;28;20025;-76
2023/02/16 16:26:56;;;;;;;84.95;32.20;;;;;;;;;;10358962;28;20037;-76
2023/02/16 16:31:56;;;;;;;83.55;32.72;;;;;;;;;;10383815;28;20480;-74
2023/02/16 16:36:57;;;;;;;81.60;30.70;;;;;;;;;;10376701;28;20049;-74
2023/02/16 16:42:17;;;;;;;85.25;36.13;;;;;;;;;;10380518;28;20091;-77
2023/02/16 16:47:21;;;;;;;99.70;37.97;;;;;;;;;;10372991;28;20034;-78
2023/02/16 16:52:51;;;;;;;76.00;36.13;;;;;;;;;;10383833;28;20041;-76
2023/02/16 16:57:51;;;;;;;91.38;37.22;;;;;;;;;;10365617;28;20039;-77
2023/02/16 17:02:51;;;;;;;86.55;36.55;;;;;;;;;;10375573;28;20517;-75
2023/02/16 17:07:52;;;;;;;82.28;35.47;;;;;;;;;;10369910;28;20100;-76
2023/02/16 17:12:55;;;;;;;96.07;35.57;;;;;;;;;;10371368;28;20050;-77
2023/02/16 17:17:55;;;;;;;83.93;36.58;;;;;;;;;;10381175;28;20034;-76
2023/02/16 17:22:55;;;;;;;112.78;36.00;;;;;;;;;;10368749;28;20022;-77
2023/02/16 17:27:57;;;;;;;91.43;36.20;;;;;;;;;;10368597;28;20224;-78
2023/02/16 17:32:58;;;;;;;107.68;38.08;;;;;;;;;;10372233;28;20280;-72
2023/02/16 17:37:58;;;;;;;104.87;36.23;;;;;;;;;;10372043;28;20032;-73
2023/02/16 17:42:58;;;;;;;99.40;35.83;;;;;;;;;;10371315;28;20025;-76
2023/02/16 17:47:58;;;;;;;117.38;38.67;;;;;;;;;;10366642;28;20030;-78
2023/02/16 17:52:59;;;;;;;120.00;36.97;;;;;;;;;;10384029;28;20064;-77
2023/02/16 17:57:59;;;;;;;107.57;37.87;;;;;;;;;;10359350;28;20116;-75
2023/02/16 18:03:00;;;;;;;103.53;32.65;;;;;;;;;;10368055;28;20025;-75
2023/02/16 18:08:00;;;;;;;79.07;29.90;;;;;;;;;;10352433;28;20044;-71
2023/02/16 18:13:00;;;;;;;80.67;28.60;;;;;;;;;;10351594;28;20030;-75
2023/02/16 18:18:01;;;;;;;66.60;27.77;;;;;;;;;;10348697;28;20033;-72
2023/02/16 18:23:01;;;;;;;69.15;30.08;;;;;;;;;;10364345;28;20110;-72
2023/02/16 18:28:02;;;;;;;95.70;32.17;;;;;;;;;;10366595;28;20026;-75
2023/02/16 18:33:02;;;;;;;70.38;27.20;;;;;;;;;;10346742;28;20116;-72
2023/02/16 18:38:02;;;;;;;50.93;21.77;;;;;;;;;;10364476;28;20029;-78
2023/02/16 18:43:02;;;;;;;54.33;20.70;;;;;;;;;;10361030;28;20045;-74
2023/02/16 18:48:03;;;;;;;52.20;21.65;;;;;;;;;;10367739;28;20042;-77
2023/02/16 18:53:04;;;;;;;56.80;22.17;;;;;;;;;;10385228;28;20066;-74
2023/02/16 18:58:06;;;;;;;88.88;32.35;;;;;;;;;;10369123;28;20026;-73
2023/02/16 19:03:07;;;;;;;60.15;22.73;;;;;;;;;;10340853;28;20088;-75
2023/02/16 19:08:07;;;;;;;56.67;23.83;;;;;;;;;;10357164;28;20037;-77
2023/02/16 19:13:07;;;;;;;65.03;23.20;;;;;;;;;;10362209;28;20080;-72
2023/02/16 19:18:08;;;;;;;57.90;22.48;;;;;;;;;;10385483;28;20065;-71
2023/02/16 19:23:08;;;;;;;72.43;24.60;;;;;;;;;;10367716;28;20577;-74
2023/02/16 19:28:08;;;;;;;59.15;24.30;;;;;;;;;;10357403;28;20551;-76
2023/02/16 19:33:08;;;;;;;59.08;23.70;;;;;;;;;;10361031;28;20604;-74
2023/02/16 19:38:09;;;;;;;60.50;25.05;;;;;;;;;;10361362;28;20471;-76
2023/02/16 19:43:09;;;;;;;61.28;23.40;;;;;;;;;;10353996;28;20513;-77
2023/02/16 19:48:09;;;;;;;63.60;25.38;;;;;;;;;;10367147;28;20033;-80
2023/02/16 19:53:10;;;;;;;66.10;25.27;;;;;;;;;;10379948;28;20054;-76
2023/02/16 19:58:10;;;;;;;69.50;24.40;;;;;;;;;;10356524;28;20033;-75
2023/02/16 20:03:10;;;;;;;63.87;22.13;;;;;;;;;;10367489;28;20028;-73
2023/02/16 20:08:10;;;;;;;55.80;24.42;;;;;;;;;;10348486;28;20104;-77
2023/02/16 20:13:11;;;;;;;63.45;23.95;;;;;;;;;;10357761;28;20034;-78
2023/02/16 20:18:13;;;;;;;54.08;23.80;;;;;;;;;;10365983;28;20037;-77
2023/02/16 20:23:16;;;;;;;64.82;24.50;;;;;;;;;;10377144;28;20108;-75
2023/02/16 20:28:16;;;;;;;61.45;24.63;;;;;;;;;;10357238;28;20022;-72
2023/02/16 20:33:18;;;;;;;68.30;22.27;;;;;;;;;;10363221;28;20022;-74
2023/02/16 20:38:18;;;;;;;58.10;23.33;;;;;;;;;;10344100;28;20025;-74
2023/02/16 20:43:19;;;;;;;50.43;21.47;;;;;;;;;;10346836;28;20022;-75
2023/02/16 20:48:20;;;;;;;64.95;23.70;;;;;;;;;;10359119;28;20040;-74
2023/02/16 20:53:21;;;;;;;52.60;23.50;;;;;;;;;;10375194;28;20083;-74
2023/02/16 20:58:21;;;;;;;54.42;21.85;;;;;;;;;;10371598;28;20124;-75
2023/02/16 21:03:21;;;;;;;56.13;22.20;;;;;;;;;;10393336;28;20029;-70
2023/02/16 21:08:21;;;;;;;43.97;21.70;;;;;;;;;;10382355;28;20024;-79
2023/02/16 21:13:22;;;;;;;57.50;22.48;;;;;;;;;;10388482;28;20153;-76
2023/02/16 21:18:22;;;;;;;53.50;21.98;;;;;;;;;;10390596;28;20017;-77
2023/02/16 21:23:22;;;;;;;48.30;21.77;;;;;;;;;;10390423;28;20041;-79
2023/02/16 21:28:23;;;;;;;49.17;21.43;;;;;;;;;;10390130;28;20021;-78
2023/02/16 21:33:23;;;;;;;61.05;23.00;;;;;;;;;;10390436;28;20044;-80
2023/02/16 21:38:23;;;;;;;45.10;19.50;;;;;;;;;;10389308;28;20021;-75
2023/02/16 21:43:23;;;;;;;45.42;21.83;;;;;;;;;;10387733;28;20033;-79
2023/02/16 21:53:43;;;;;;;44.65;18.80;;;;;;;;;;10368473;28;20096;-74
2023/02/16 21:58:43;;;;;;;45.03;19.50;;;;;;;;;;10376628;28;20112;-76
2023/02/16 22:03:43;;;;;;;53.87;20.23;;;;;;;;;;10389414;28;20116;-76
2023/02/16 22:08:43;;;;;;;45.70;20.87;;;;;;;;;;10372950;28;20108;-73
2023/02/16 22:13:44;;;;;;;42.30;20.23;;;;;;;;;;10376701;28;20057;-73
2023/02/16 22:18:44;;;;;;;47.80;20.60;;;;;;;;;;10365270;28;20014;-76
2023/02/16 22:23:45;;;;;;;48.45;20.23;;;;;;;;;;10366676;28;20457;-79
2023/02/16 22:28:45;;;;;;;45.53;21.77;;;;;;;;;;10371080;28;20056;-70
2023/02/16 22:33:45;;;;;;;44.85;21.25;;;;;;;;;;10373586;28;20037;-77
2023/02/16 22:38:46;;;;;;;46.40;21.65;;;;;;;;;;10404490;28;20014;-76
2023/02/16 22:43:46;;;;;;;49.20;21.67;;;;;;;;;;10388199;28;20637;-75
2023/02/16 22:48:47;;;;;;;52.58;21.20;;;;;;;;;;10395862;28;20033;-73
2023/02/16 22:53:47;;;;;;;46.85;20.80;;;;;;;;;;10392608;28;20053;-77
2023/02/16 22:58:48;;;;;;;59.30;22.90;;;;;;;;;;10405238;28;20051;-74
2023/02/16 23:03:49;;;;;;;47.00;19.67;;;;;;;;;;10404093;28;20053;-76
2023/02/16 23:08:51;;;;;;;52.17;20.27;;;;;;;;;;10386539;28;20056;-72
2023/02/16 23:13:52;;;;;;;49.95;19.65;;;;;;;;;;10386014;28;20052;-73
2023/02/16 23:18:53;;;;;;;47.93;19.67;;;;;;;;;;10386402;28;20041;-76
2023/02/16 23:23:54;;;;;;;38.33;16.45;;;;;;;;;;10380139;28;20355;-75
2023/02/16 23:28:55;;;;;;;38.75;17.65;;;;;;;;;;10384661;28;20030;-76
2023/02/16 23:33:55;;;;;;;44.10;18.55;;;;;;;;;;10385104;28;20451;-77
2023/02/16 23:38:59;;;;;;;41.78;17.95;;;;;;;;;;10368889;28;20103;-77
2023/02/16 23:44:00;;;;;;;42.55;19.00;;;;;;;;;;10385349;28;20048;-70
2023/02/16 23:49:00;;;;;;;44.17;18.25;;;;;;;;;;10403025;28;20078;-73
2023/02/16 23:54:00;;;;;;;40.20;19.00;;;;;;;;;;10385155;28;20045;-77
2023/02/16 23:59:01;;;;;;;44.38;18.23;;;;;;;;;;10403017;28;20017;-78
